sensor_id;sensor_type;location;lat;lon;timestamp;P1;durP1;ratioP1;P2;durP2;ratioP2
4102;SDS011;2065;49.790;9.620;2022-12-18T00:01:58;27.00;;;14.40;;
4102;SDS011;2065;49.790;9.620;2022-12-18T00:04:26;25.40;;;15.53;;
4102;SDS011;2065;49.790;9.620;2022-12-18T00:06:53;25.57;;;13.70;;
4102;SDS011;2065;49.790;9.620;2022-12-18T00:09:20;25.33;;;12.57;;
4102;SDS011;2065;49.790;9.620;2022-12-18T00:11:47;27.03;;;16.17;;
4102;SDS011;2065;49.790;9.620;2022-12-18T00:14:16;32.57;;;12.77;;
4102;SDS011;2065;49.790;9.620;2022-12-18T00:16:43;23.70;;;13.57;;
4102;SDS011;2065;49.790;9.620;2022-12-18T00:19:12;23.27;;;12.50;;
4102;SDS011;2065;49.790;9.620;2022-12-18T00:21:40;23.80;;;11.77;;
4102;SDS011;2065;49.790;9.620;2022-12-18T00:24:08;22.10;;;12.53;;
4102;SDS011;2065;49.790;9.620;2022-12-18T00:26:36;24.13;;;11.80;;
4102;SDS011;2065;49.790;9.620;2022-12-18T00:29:05;31.70;;;11.93;;
4102;SDS011;2065;49.790;9.620;2022-12-18T00:31:34;37.00;;;17.40;;
4102;SDS011;2065;49.790;9.620;2022-12-18T00:34:02;27.00;;;12.43;;
4102;SDS011;2065;49.790;9.620;2022-12-18T00:36:30;38.33;;;14.17;;
4102;SDS011;2065;49.790;9.620;2022-12-18T00:39:02;26.97;;;12.97;;
4102;SDS011;2065;49.790;9.620;2022-12-18T00:41:30;32.80;;;13.73;;
4102;SDS011;2065;49.790;9.620;2022-12-18T00:44:16;23.00;;;13.90;;
4102;SDS011;2065;49.790;9.620;2022-12-18T00:46:46;17.23;;;9.23;;
4102;SDS011;2065;49.790;9.620;2022-12-18T00:49:14;30.50;;;14.03;;
4102;SDS011;2065;49.790;9.620;2022-12-18T00:51:42;21.80;;;11.17;;
4102;SDS011;2065;49.790;9.620;2022-12-18T00:54:09;20.30;;;12.40;;
4102;SDS011;2065;49.790;9.620;2022-12-18T00:56:36;17.57;;;9.70;;
4102;SDS011;2065;49.790;9.620;2022-12-18T00:59:04;36.33;;;11.87;;
4102;SDS011;2065;49.790;9.620;2022-12-18T01:01:31;26.20;;;13.90;;
4102;SDS011;2065;49.790;9.620;2022-12-18T01:04:00;23.50;;;11.00;;
4102;SDS011;2065;49.790;9.620;2022-12-18T01:06:28;20.93;;;10.83;;
4102;SDS011;2065;49.790;9.620;2022-12-18T01:08:56;25.93;;;11.50;;
4102;SDS011;2065;49.790;9.620;2022-12-18T01:11:23;31.10;;;13.63;;
4102;SDS011;2065;49.790;9.620;2022-12-18T01:13:52;36.90;;;12.57;;
4102;SDS011;2065;49.790;9.620;2022-12-18T01:16:21;34.00;;;15.17;;
4102;SDS011;2065;49.790;9.620;2022-12-18T01:18:50;23.27;;;13.40;;
4102;SDS011;2065;49.790;9.620;2022-12-18T01:21:20;33.97;;;16.47;;
4102;SDS011;2065;49.790;9.620;2022-12-18T01:23:50;27.30;;;10.20;;
4102;SDS011;2065;49.790;9.620;2022-12-18T01:26:19;22.57;;;13.80;;
4102;SDS011;2065;49.790;9.620;2022-12-18T01:28:46;31.13;;;15.17;;
4102;SDS011;2065;49.790;9.620;2022-12-18T01:31:14;21.83;;;10.27;;
4102;SDS011;2065;49.790;9.620;2022-12-18T01:33:48;27.27;;;16.80;;
4102;SDS011;2065;49.790;9.620;2022-12-18T01:36:17;25.10;;;13.50;;
4102;SDS011;2065;49.790;9.620;2022-12-18T01:38:46;17.20;;;8.53;;
4102;SDS011;2065;49.790;9.620;2022-12-18T01:41:14;26.77;;;13.80;;
4102;SDS011;2065;49.790;9.620;2022-12-18T01:43:44;17.47;;;11.60;;
4102;SDS011;2065;49.790;9.620;2022-12-18T01:46:13;18.63;;;10.73;;
4102;SDS011;2065;49.790;9.620;2022-12-18T01:48:40;24.00;;;12.07;;
4102;SDS011;2065;49.790;9.620;2022-12-18T01:51:09;22.93;;;11.33;;
4102;SDS011;2065;49.790;9.620;2022-12-18T01:53:37;15.63;;;10.90;;
4102;SDS011;2065;49.790;9.620;2022-12-18T01:56:08;22.23;;;10.50;;
4102;SDS011;2065;49.790;9.620;2022-12-18T01:58:39;11.90;;;10.70;;
4102;SDS011;2065;49.790;9.620;2022-12-18T02:01:12;18.83;;;11.47;;
4102;SDS011;2065;49.790;9.620;2022-12-18T02:03:41;23.30;;;11.27;;
4102;SDS011;2065;49.790;9.620;2022-12-18T02:06:11;30.60;;;14.40;;
4102;SDS011;2065;49.790;9.620;2022-12-18T02:08:45;19.97;;;9.90;;
4102;SDS011;2065;49.790;9.620;2022-12-18T02:11:27;12.07;;;10.47;;
4102;SDS011;2065;49.790;9.620;2022-12-18T02:14:04;15.73;;;9.47;;
4102;SDS011;2065;49.790;9.620;2022-12-18T02:16:43;14.57;;;9.30;;
4102;SDS011;2065;49.790;9.620;2022-12-18T02:19:21;21.00;;;9.43;;
4102;SDS011;2065;49.790;9.620;2022-12-18T02:22:01;14.00;;;7.83;;
4102;SDS011;2065;49.790;9.620;2022-12-18T02:24:45;12.13;;;8.00;;
4102;SDS011;2065;49.790;9.620;2022-12-18T02:27:25;9.17;;;5.83;;
4102;SDS011;2065;49.790;9.620;2022-12-18T02:29:54;15.57;;;10.23;;
4102;SDS011;2065;49.790;9.620;2022-12-18T02:32:24;28.13;;;10.10;;
4102;SDS011;2065;49.790;9.620;2022-12-18T02:34:53;20.53;;;12.30;;
4102;SDS011;2065;49.790;9.620;2022-12-18T02:37:24;21.17;;;7.77;;
4102;SDS011;2065;49.790;9.620;2022-12-18T02:39:54;22.07;;;12.77;;
4102;SDS011;2065;49.790;9.620;2022-12-18T02:42:25;17.23;;;10.10;;
4102;SDS011;2065;49.790;9.620;2022-12-18T02:44:55;24.67;;;10.10;;
4102;SDS011;2065;49.790;9.620;2022-12-18T02:47:24;24.40;;;8.27;;
4102;SDS011;2065;49.790;9.620;2022-12-18T02:49:57;13.37;;;9.07;;
4102;SDS011;2065;49.790;9.620;2022-12-18T02:52:38;17.10;;;7.97;;
4102;SDS011;2065;49.790;9.620;2022-12-18T02:55:20;19.33;;;7.20;;
4102;SDS011;2065;49.790;9.620;2022-12-18T02:58:03;14.33;;;10.00;;
4102;SDS011;2065;49.790;9.620;2022-12-18T03:00:37;15.70;;;9.63;;
4102;SDS011;2065;49.790;9.620;2022-12-18T03:03:09;23.37;;;8.67;;
4102;SDS011;2065;49.790;9.620;2022-12-18T03:05:43;16.53;;;8.77;;
4102;SDS011;2065;49.790;9.620;2022-12-18T03:08:17;13.37;;;9.00;;
4102;SDS011;2065;49.790;9.620;2022-12-18T03:10:49;18.03;;;10.47;;
4102;SDS011;2065;49.790;9.620;2022-12-18T03:13:25;15.70;;;8.90;;
4102;SDS011;2065;49.790;9.620;2022-12-18T03:15:55;19.43;;;10.47;;
4102;SDS011;2065;49.790;9.620;2022-12-18T03:18:26;21.13;;;7.93;;
4102;SDS011;2065;49.790;9.620;2022-12-18T03:20:58;19.47;;;11.10;;
4102;SDS011;2065;49.790;9.620;2022-12-18T03:23:29;15.37;;;8.40;;
4102;SDS011;2065;49.790;9.620;2022-12-18T03:26:01;18.10;;;9.77;;
4102;SDS011;2065;49.790;9.620;2022-12-18T03:28:38;15.30;;;7.97;;
4102;SDS011;2065;49.790;9.620;2022-12-18T03:31:09;14.30;;;8.33;;
4102;SDS011;2065;49.790;9.620;2022-12-18T03:33:39;19.80;;;10.70;;
4102;SDS011;2065;49.790;9.620;2022-12-18T03:36:13;15.90;;;7.87;;
4102;SDS011;2065;49.790;9.620;2022-12-18T03:38:40;12.07;;;7.90;;
4102;SDS011;2065;49.790;9.620;2022-12-18T03:41:10;8.27;;;7.00;;
4102;SDS011;2065;49.790;9.620;2022-12-18T03:44:12;11.83;;;7.10;;
4102;SDS011;2065;49.790;9.620;2022-12-18T03:46:46;21.60;;;10.17;;
4102;SDS011;2065;49.790;9.620;2022-12-18T03:49:23;12.30;;;8.67;;
4102;SDS011;2065;49.790;9.620;2022-12-18T03:52:01;18.63;;;8.40;;
4102;SDS011;2065;49.790;9.620;2022-12-18T03:54:31;14.57;;;10.87;;
4102;SDS011;2065;49.790;9.620;2022-12-18T03:57:09;7.43;;;5.93;;
4102;SDS011;2065;49.790;9.620;2022-12-18T03:59:42;19.70;;;9.23;;
4102;SDS011;2065;49.790;9.620;2022-12-18T04:02:13;14.13;;;10.43;;
4102;SDS011;2065;49.790;9.620;2022-12-18T04:04:42;13.90;;;7.90;;
4102;SDS011;2065;49.790;9.620;2022-12-18T04:07:10;44.97;;;8.50;;
4102;SDS011;2065;49.790;9.620;2022-12-18T04:09:40;20.00;;;9.93;;
4102;SDS011;2065;49.790;9.620;2022-12-18T04:12:11;15.00;;;8.60;;
4102;SDS011;2065;49.790;9.620;2022-12-18T04:14:38;14.33;;;6.17;;
4102;SDS011;2065;49.790;9.620;2022-12-18T04:17:08;20.90;;;9.47;;
4102;SDS011;2065;49.790;9.620;2022-12-18T04:19:36;19.80;;;9.20;;
4102;SDS011;2065;49.790;9.620;2022-12-18T04:22:03;16.97;;;7.47;;
4102;SDS011;2065;49.790;9.620;2022-12-18T04:24:36;23.47;;;7.83;;
4102;SDS011;2065;49.790;9.620;2022-12-18T04:27:10;14.40;;;8.47;;
4102;SDS011;2065;49.790;9.620;2022-12-18T04:29:42;11.70;;;9.07;;
4102;SDS011;2065;49.790;9.620;2022-12-18T04:32:10;30.33;;;11.10;;
4102;SDS011;2065;49.790;9.620;2022-12-18T04:34:38;15.80;;;8.73;;
4102;SDS011;2065;49.790;9.620;2022-12-18T04:37:06;19.20;;;9.17;;
4102;SDS011;2065;49.790;9.620;2022-12-18T04:39:33;14.77;;;8.47;;
4102;SDS011;2065;49.790;9.620;2022-12-18T04:42:06;19.00;;;10.17;;
4102;SDS011;2065;49.790;9.620;2022-12-18T04:44:33;15.43;;;10.70;;
4102;SDS011;2065;49.790;9.620;2022-12-18T04:47:00;12.17;;;8.83;;
4102;SDS011;2065;49.790;9.620;2022-12-18T04:49:28;10.43;;;7.10;;
4102;SDS011;2065;49.790;9.620;2022-12-18T04:51:55;20.00;;;7.07;;
4102;SDS011;2065;49.790;9.620;2022-12-18T04:54:22;12.83;;;7.17;;
4102;SDS011;2065;49.790;9.620;2022-12-18T04:56:50;15.93;;;9.23;;
4102;SDS011;2065;49.790;9.620;2022-12-18T04:59:17;14.27;;;9.00;;
4102;SDS011;2065;49.790;9.620;2022-12-18T05:01:45;12.70;;;8.27;;
4102;SDS011;2065;49.790;9.620;2022-12-18T05:04:12;20.40;;;11.03;;
4102;SDS011;2065;49.790;9.620;2022-12-18T05:06:40;33.60;;;10.27;;
4102;SDS011;2065;49.790;9.620;2022-12-18T05:09:07;16.30;;;8.90;;
4102;SDS011;2065;49.790;9.620;2022-12-18T05:11:34;45.13;;;11.47;;
4102;SDS011;2065;49.790;9.620;2022-12-18T05:14:02;18.43;;;9.80;;
4102;SDS011;2065;49.790;9.620;2022-12-18T05:16:29;11.70;;;7.53;;
4102;SDS011;2065;49.790;9.620;2022-12-18T05:18:56;18.83;;;9.03;;
4102;SDS011;2065;49.790;9.620;2022-12-18T05:21:23;15.30;;;10.37;;
4102;SDS011;2065;49.790;9.620;2022-12-18T05:23:51;19.23;;;8.43;;
4102;SDS011;2065;49.790;9.620;2022-12-18T05:26:18;22.40;;;10.40;;
4102;SDS011;2065;49.790;9.620;2022-12-18T05:28:46;13.67;;;8.70;;
4102;SDS011;2065;49.790;9.620;2022-12-18T05:31:13;15.37;;;9.00;;
4102;SDS011;2065;49.790;9.620;2022-12-18T05:33:40;12.63;;;7.97;;
4102;SDS011;2065;49.790;9.620;2022-12-18T05:36:08;16.33;;;8.10;;
4102;SDS011;2065;49.790;9.620;2022-12-18T05:38:37;20.03;;;10.23;;
4102;SDS011;2065;49.790;9.620;2022-12-18T05:41:06;25.00;;;11.40;;
4102;SDS011;2065;49.790;9.620;2022-12-18T05:43:34;17.13;;;9.37;;
4102;SDS011;2065;49.790;9.620;2022-12-18T05:46:03;16.50;;;9.07;;
4102;SDS011;2065;49.790;9.620;2022-12-18T05:48:31;10.17;;;7.93;;
4102;SDS011;2065;49.790;9.620;2022-12-18T05:51:02;24.10;;;11.63;;
4102;SDS011;2065;49.790;9.620;2022-12-18T05:53:31;11.47;;;9.07;;
4102;SDS011;2065;49.790;9.620;2022-12-18T05:55:59;19.83;;;10.50;;
4102;SDS011;2065;49.790;9.620;2022-12-18T05:58:28;14.23;;;9.93;;
4102;SDS011;2065;49.790;9.620;2022-12-18T06:00:55;20.10;;;10.63;;
4102;SDS011;2065;49.790;9.620;2022-12-18T06:03:22;15.10;;;8.73;;
4102;SDS011;2065;49.790;9.620;2022-12-18T06:05:49;14.20;;;8.57;;
4102;SDS011;2065;49.790;9.620;2022-12-18T06:08:16;19.87;;;10.40;;
4102;SDS011;2065;49.790;9.620;2022-12-18T06:10:48;26.67;;;12.37;;
4102;SDS011;2065;49.790;9.620;2022-12-18T06:13:17;11.43;;;7.43;;
4102;SDS011;2065;49.790;9.620;2022-12-18T06:15:46;12.80;;;7.70;;
4102;SDS011;2065;49.790;9.620;2022-12-18T06:18:13;21.03;;;10.60;;
4102;SDS011;2065;49.790;9.620;2022-12-18T06:20:39;16.63;;;10.90;;
4102;SDS011;2065;49.790;9.620;2022-12-18T06:23:06;22.30;;;12.07;;
4102;SDS011;2065;49.790;9.620;2022-12-18T06:25:36;16.23;;;9.60;;
4102;SDS011;2065;49.790;9.620;2022-12-18T06:28:04;18.60;;;8.43;;
4102;SDS011;2065;49.790;9.620;2022-12-18T06:30:32;16.17;;;10.10;;
4102;SDS011;2065;49.790;9.620;2022-12-18T06:33:00;23.17;;;11.50;;
4102;SDS011;2065;49.790;9.620;2022-12-18T06:35:27;25.00;;;8.60;;
4102;SDS011;2065;49.790;9.620;2022-12-18T06:37:54;27.60;;;11.27;;
4102;SDS011;2065;49.790;9.620;2022-12-18T06:40:21;14.23;;;9.70;;
4102;SDS011;2065;49.790;9.620;2022-12-18T06:42:48;22.33;;;12.17;;
4102;SDS011;2065;49.790;9.620;2022-12-18T06:45:14;24.17;;;9.50;;
4102;SDS011;2065;49.790;9.620;2022-12-18T06:47:41;22.27;;;10.00;;
4102;SDS011;2065;49.790;9.620;2022-12-18T06:50:10;15.20;;;9.00;;
4102;SDS011;2065;49.790;9.620;2022-12-18T06:52:38;15.20;;;8.87;;
4102;SDS011;2065;49.790;9.620;2022-12-18T06:55:06;19.70;;;10.17;;
4102;SDS011;2065;49.790;9.620;2022-12-18T06:57:33;10.93;;;7.97;;
4102;SDS011;2065;49.790;9.620;2022-12-18T07:00:01;19.73;;;10.97;;
4102;SDS011;2065;49.790;9.620;2022-12-18T07:02:28;22.70;;;12.03;;
4102;SDS011;2065;49.790;9.620;2022-12-18T07:04:55;16.63;;;9.87;;
4102;SDS011;2065;49.790;9.620;2022-12-18T07:07:23;19.07;;;10.57;;
4102;SDS011;2065;49.790;9.620;2022-12-18T07:09:50;20.67;;;10.70;;
4102;SDS011;2065;49.790;9.620;2022-12-18T07:12:18;20.87;;;10.60;;
4102;SDS011;2065;49.790;9.620;2022-12-18T07:14:45;22.33;;;12.97;;
4102;SDS011;2065;49.790;9.620;2022-12-18T07:17:12;16.50;;;11.30;;
4102;SDS011;2065;49.790;9.620;2022-12-18T07:19:39;20.60;;;10.03;;
4102;SDS011;2065;49.790;9.620;2022-12-18T07:22:06;41.73;;;12.23;;
4102;SDS011;2065;49.790;9.620;2022-12-18T07:24:34;13.00;;;10.43;;
4102;SDS011;2065;49.790;9.620;2022-12-18T07:27:01;16.87;;;10.30;;
4102;SDS011;2065;49.790;9.620;2022-12-18T07:29:28;9.73;;;8.00;;
4102;SDS011;2065;49.790;9.620;2022-12-18T07:31:56;15.90;;;10.53;;
4102;SDS011;2065;49.790;9.620;2022-12-18T07:34:23;14.07;;;8.40;;
4102;SDS011;2065;49.790;9.620;2022-12-18T07:36:50;20.43;;;9.30;;
4102;SDS011;2065;49.790;9.620;2022-12-18T07:39:17;13.43;;;8.53;;
4102;SDS011;2065;49.790;9.620;2022-12-18T07:41:45;19.87;;;10.70;;
4102;SDS011;2065;49.790;9.620;2022-12-18T07:44:32;16.57;;;9.93;;
4102;SDS011;2065;49.790;9.620;2022-12-18T07:46:59;29.00;;;10.63;;
4102;SDS011;2065;49.790;9.620;2022-12-18T07:49:26;30.97;;;14.70;;
4102;SDS011;2065;49.790;9.620;2022-12-18T07:51:53;17.10;;;13.40;;
4102;SDS011;2065;49.790;9.620;2022-12-18T07:54:21;18.27;;;11.40;;
4102;SDS011;2065;49.790;9.620;2022-12-18T07:56:49;39.63;;;13.80;;
4102;SDS011;2065;49.790;9.620;2022-12-18T07:59:16;29.50;;;14.87;;
4102;SDS011;2065;49.790;9.620;2022-12-18T08:01:43;35.70;;;15.23;;
4102;SDS011;2065;49.790;9.620;2022-12-18T08:04:11;30.77;;;12.40;;
4102;SDS011;2065;49.790;9.620;2022-12-18T08:06:37;56.40;;;17.07;;
4102;SDS011;2065;49.790;9.620;2022-12-18T08:09:04;56.10;;;18.10;;
4102;SDS011;2065;49.790;9.620;2022-12-18T08:11:33;28.03;;;15.70;;
4102;SDS011;2065;49.790;9.620;2022-12-18T08:14:01;46.60;;;17.90;;
4102;SDS011;2065;49.790;9.620;2022-12-18T08:16:28;36.57;;;15.93;;
4102;SDS011;2065;49.790;9.620;2022-12-18T08:18:55;36.07;;;18.83;;
4102;SDS011;2065;49.790;9.620;2022-12-18T08:21:23;23.37;;;13.77;;
4102;SDS011;2065;49.790;9.620;2022-12-18T08:23:52;36.77;;;17.23;;
4102;SDS011;2065;49.790;9.620;2022-12-18T08:26:20;35.90;;;14.20;;
4102;SDS011;2065;49.790;9.620;2022-12-18T08:28:49;29.43;;;15.10;;
4102;SDS011;2065;49.790;9.620;2022-12-18T08:31:18;36.87;;;15.70;;
4102;SDS011;2065;49.790;9.620;2022-12-18T08:33:47;39.87;;;16.60;;
4102;SDS011;2065;49.790;9.620;2022-12-18T08:36:15;33.13;;;13.40;;
4102;SDS011;2065;49.790;9.620;2022-12-18T08:38:42;48.80;;;18.97;;
4102;SDS011;2065;49.790;9.620;2022-12-18T08:41:10;25.77;;;13.30;;
4102;SDS011;2065;49.790;9.620;2022-12-18T08:43:38;40.70;;;14.10;;
4102;SDS011;2065;49.790;9.620;2022-12-18T08:46:25;40.53;;;22.43;;
4102;SDS011;2065;49.790;9.620;2022-12-18T08:48:53;36.07;;;15.90;;
4102;SDS011;2065;49.790;9.620;2022-12-18T08:51:21;33.43;;;15.90;;
4102;SDS011;2065;49.790;9.620;2022-12-18T08:53:48;36.07;;;15.07;;
4102;SDS011;2065;49.790;9.620;2022-12-18T08:56:15;39.00;;;19.43;;
4102;SDS011;2065;49.790;9.620;2022-12-18T08:58:43;40.70;;;20.10;;
4102;SDS011;2065;49.790;9.620;2022-12-18T09:01:10;41.07;;;19.53;;
4102;SDS011;2065;49.790;9.620;2022-12-18T09:03:40;43.13;;;16.80;;
4102;SDS011;2065;49.790;9.620;2022-12-18T09:06:07;53.47;;;20.37;;
4102;SDS011;2065;49.790;9.620;2022-12-18T09:08:34;45.53;;;20.17;;
4102;SDS011;2065;49.790;9.620;2022-12-18T09:11:02;37.33;;;17.87;;
4102;SDS011;2065;49.790;9.620;2022-12-18T09:13:29;55.93;;;25.07;;
4102;SDS011;2065;49.790;9.620;2022-12-18T09:15:56;57.33;;;25.07;;
4102;SDS011;2065;49.790;9.620;2022-12-18T09:18:23;44.70;;;16.17;;
4102;SDS011;2065;49.790;9.620;2022-12-18T09:20:52;38.53;;;19.40;;
4102;SDS011;2065;49.790;9.620;2022-12-18T09:23:19;29.00;;;13.90;;
4102;SDS011;2065;49.790;9.620;2022-12-18T09:25:46;36.43;;;14.97;;
4102;SDS011;2065;49.790;9.620;2022-12-18T09:28:14;29.10;;;13.87;;
4102;SDS011;2065;49.790;9.620;2022-12-18T09:30:43;26.57;;;10.13;;
4102;SDS011;2065;49.790;9.620;2022-12-18T09:33:12;21.83;;;11.57;;
4102;SDS011;2065;49.790;9.620;2022-12-18T09:35:39;35.63;;;14.43;;
4102;SDS011;2065;49.790;9.620;2022-12-18T09:38:09;35.57;;;13.90;;
4102;SDS011;2065;49.790;9.620;2022-12-18T09:40:40;22.20;;;13.63;;
4102;SDS011;2065;49.790;9.620;2022-12-18T09:43:12;30.80;;;13.30;;
4102;SDS011;2065;49.790;9.620;2022-12-18T09:45:44;36.93;;;13.63;;
4102;SDS011;2065;49.790;9.620;2022-12-18T09:48:15;30.97;;;14.63;;
4102;SDS011;2065;49.790;9.620;2022-12-18T09:50:49;20.87;;;12.87;;
4102;SDS011;2065;49.790;9.620;2022-12-18T09:53:20;21.37;;;13.60;;
4102;SDS011;2065;49.790;9.620;2022-12-18T09:55:56;16.10;;;8.27;;
4102;SDS011;2065;49.790;9.620;2022-12-18T09:58:25;41.57;;;15.57;;
4102;SDS011;2065;49.790;9.620;2022-12-18T10:00:55;48.27;;;15.97;;
4102;SDS011;2065;49.790;9.620;2022-12-18T10:03:23;29.50;;;12.67;;
4102;SDS011;2065;49.790;9.620;2022-12-18T10:05:53;36.13;;;11.47;;
4102;SDS011;2065;49.790;9.620;2022-12-18T10:08:32;38.60;;;15.70;;
4102;SDS011;2065;49.790;9.620;2022-12-18T10:11:14;22.53;;;11.53;;
4102;SDS011;2065;49.790;9.620;2022-12-18T10:14:00;33.70;;;11.70;;
4102;SDS011;2065;49.790;9.620;2022-12-18T10:16:35;28.43;;;14.37;;
4102;SDS011;2065;49.790;9.620;2022-12-18T10:19:11;33.23;;;13.80;;
4102;SDS011;2065;49.790;9.620;2022-12-18T10:22:01;28.67;;;13.60;;
4102;SDS011;2065;49.790;9.620;2022-12-18T10:24:39;34.57;;;12.53;;
4102;SDS011;2065;49.790;9.620;2022-12-18T10:27:14;30.87;;;16.93;;
4102;SDS011;2065;49.790;9.620;2022-12-18T10:29:42;32.10;;;14.00;;
4102;SDS011;2065;49.790;9.620;2022-12-18T10:32:13;38.07;;;14.87;;
4102;SDS011;2065;49.790;9.620;2022-12-18T10:34:44;39.17;;;15.67;;
4102;SDS011;2065;49.790;9.620;2022-12-18T10:37:14;32.53;;;17.03;;
4102;SDS011;2065;49.790;9.620;2022-12-18T10:39:45;33.70;;;16.40;;
4102;SDS011;2065;49.790;9.620;2022-12-18T10:42:30;30.43;;;14.20;;
4102;SDS011;2065;49.790;9.620;2022-12-18T10:45:00;53.00;;;18.13;;
4102;SDS011;2065;49.790;9.620;2022-12-18T10:47:29;38.77;;;17.30;;
4102;SDS011;2065;49.790;9.620;2022-12-18T10:49:57;37.70;;;15.87;;
4102;SDS011;2065;49.790;9.620;2022-12-18T10:52:24;41.43;;;16.47;;
4102;SDS011;2065;49.790;9.620;2022-12-18T10:54:54;35.30;;;14.60;;
4102;SDS011;2065;49.790;9.620;2022-12-18T10:57:33;29.97;;;12.80;;
4102;SDS011;2065;49.790;9.620;2022-12-18T11:00:22;34.93;;;13.53;;
4102;SDS011;2065;49.790;9.620;2022-12-18T11:02:51;35.13;;;16.40;;
4102;SDS011;2065;49.790;9.620;2022-12-18T11:05:25;31.10;;;14.60;;
4102;SDS011;2065;49.790;9.620;2022-12-18T11:07:55;30.17;;;16.77;;
4102;SDS011;2065;49.790;9.620;2022-12-18T11:10:25;46.20;;;17.37;;
4102;SDS011;2065;49.790;9.620;2022-12-18T11:12:55;33.30;;;14.93;;
4102;SDS011;2065;49.790;9.620;2022-12-18T11:15:23;34.33;;;14.23;;
4102;SDS011;2065;49.790;9.620;2022-12-18T11:17:55;28.73;;;12.37;;
4102;SDS011;2065;49.790;9.620;2022-12-18T11:20:29;34.13;;;14.77;;
4102;SDS011;2065;49.790;9.620;2022-12-18T11:22:58;36.77;;;15.67;;
4102;SDS011;2065;49.790;9.620;2022-12-18T11:25:29;28.03;;;13.80;;
4102;SDS011;2065;49.790;9.620;2022-12-18T11:27:58;31.40;;;14.40;;
4102;SDS011;2065;49.790;9.620;2022-12-18T11:30:27;32.70;;;14.57;;
4102;SDS011;2065;49.790;9.620;2022-12-18T11:32:55;36.27;;;14.30;;
4102;SDS011;2065;49.790;9.620;2022-12-18T11:35:32;28.00;;;14.97;;
4102;SDS011;2065;49.790;9.620;2022-12-18T11:38:04;25.80;;;13.00;;
4102;SDS011;2065;49.790;9.620;2022-12-18T11:40:41;36.53;;;15.30;;
4102;SDS011;2065;49.790;9.620;2022-12-18T11:43:13;37.40;;;15.00;;
4102;SDS011;2065;49.790;9.620;2022-12-18T11:45:45;46.73;;;17.60;;
4102;SDS011;2065;49.790;9.620;2022-12-18T11:48:18;31.57;;;17.53;;
4102;SDS011;2065;49.790;9.620;2022-12-18T11:50:51;36.23;;;16.60;;
4102;SDS011;2065;49.790;9.620;2022-12-18T11:53:19;35.23;;;14.83;;
4102;SDS011;2065;49.790;9.620;2022-12-18T11:55:51;38.43;;;16.23;;
4102;SDS011;2065;49.790;9.620;2022-12-18T11:58:34;36.17;;;15.50;;
4102;SDS011;2065;49.790;9.620;2022-12-18T12:01:13;36.37;;;15.80;;
4102;SDS011;2065;49.790;9.620;2022-12-18T12:06:43;28.07;;;14.83;;
4102;SDS011;2065;49.790;9.620;2022-12-18T12:09:19;27.57;;;17.77;;
4102;SDS011;2065;49.790;9.620;2022-12-18T12:11:53;30.67;;;15.83;;
4102;SDS011;2065;49.790;9.620;2022-12-18T12:14:42;31.00;;;13.63;;
4102;SDS011;2065;49.790;9.620;2022-12-18T12:17:18;33.00;;;16.27;;
4102;SDS011;2065;49.790;9.620;2022-12-18T12:19:56;39.27;;;14.77;;
4102;SDS011;2065;49.790;9.620;2022-12-18T12:22:30;35.57;;;16.33;;
4102;SDS011;2065;49.790;9.620;2022-12-18T12:25:10;30.03;;;14.07;;
4102;SDS011;2065;49.790;9.620;2022-12-18T12:27:49;39.60;;;15.40;;
4102;SDS011;2065;49.790;9.620;2022-12-18T12:30:26;37.03;;;15.77;;
4102;SDS011;2065;49.790;9.620;2022-12-18T12:33:04;22.80;;;14.00;;
4102;SDS011;2065;49.790;9.620;2022-12-18T12:35:44;31.23;;;13.83;;
4102;SDS011;2065;49.790;9.620;2022-12-18T12:38:18;31.77;;;14.90;;
4102;SDS011;2065;49.790;9.620;2022-12-18T12:40:49;33.90;;;17.07;;
4102;SDS011;2065;49.790;9.620;2022-12-18T12:46:06;26.23;;;12.23;;
4102;SDS011;2065;49.790;9.620;2022-12-18T12:48:37;29.67;;;14.80;;
4102;SDS011;2065;49.790;9.620;2022-12-18T12:51:14;33.83;;;13.50;;
4102;SDS011;2065;49.790;9.620;2022-12-18T12:53:44;32.33;;;14.30;;
4102;SDS011;2065;49.790;9.620;2022-12-18T12:56:12;39.10;;;13.77;;
4102;SDS011;2065;49.790;9.620;2022-12-18T12:58:45;27.83;;;11.27;;
4102;SDS011;2065;49.790;9.620;2022-12-18T13:01:23;27.93;;;12.13;;
4102;SDS011;2065;49.790;9.620;2022-12-18T13:04:00;32.73;;;14.20;;
4102;SDS011;2065;49.790;9.620;2022-12-18T13:06:36;33.10;;;14.60;;
4102;SDS011;2065;49.790;9.620;2022-12-18T13:09:08;29.07;;;14.00;;
4102;SDS011;2065;49.790;9.620;2022-12-18T13:11:36;30.80;;;18.07;;
4102;SDS011;2065;49.790;9.620;2022-12-18T13:14:24;33.67;;;14.57;;
4102;SDS011;2065;49.790;9.620;2022-12-18T13:19:40;40.50;;;13.60;;
4102;SDS011;2065;49.790;9.620;2022-12-18T13:22:19;39.10;;;13.07;;
4102;SDS011;2065;49.790;9.620;2022-12-18T13:24:48;34.00;;;12.57;;
4102;SDS011;2065;49.790;9.620;2022-12-18T13:36:16;34.17;;;15.37;;
4102;SDS011;2065;49.790;9.620;2022-12-18T13:48:15;37.70;;;11.53;;
4102;SDS011;2065;49.790;9.620;2022-12-18T13:50:47;32.93;;;14.90;;
4102;SDS011;2065;49.790;9.620;2022-12-18T13:53:19;29.63;;;13.63;;
4102;SDS011;2065;49.790;9.620;2022-12-18T13:55:50;27.00;;;13.80;;
4102;SDS011;2065;49.790;9.620;2022-12-18T13:58:17;38.90;;;14.97;;
4102;SDS011;2065;49.790;9.620;2022-12-18T14:00:44;31.00;;;15.00;;
4102;SDS011;2065;49.790;9.620;2022-12-18T14:03:17;30.83;;;12.60;;
4102;SDS011;2065;49.790;9.620;2022-12-18T14:05:45;32.93;;;13.87;;
4102;SDS011;2065;49.790;9.620;2022-12-18T14:08:21;30.17;;;13.20;;
4102;SDS011;2065;49.790;9.620;2022-12-18T14:10:51;36.00;;;13.07;;
4102;SDS011;2065;49.790;9.620;2022-12-18T14:13:23;23.77;;;10.57;;
4102;SDS011;2065;49.790;9.620;2022-12-18T14:15:53;33.97;;;10.60;;
4102;SDS011;2065;49.790;9.620;2022-12-18T14:18:23;27.60;;;11.67;;
4102;SDS011;2065;49.790;9.620;2022-12-18T14:20:52;39.40;;;12.53;;
4102;SDS011;2065;49.790;9.620;2022-12-18T14:23:27;37.47;;;15.40;;
4102;SDS011;2065;49.790;9.620;2022-12-18T14:25:59;30.67;;;13.07;;
4102;SDS011;2065;49.790;9.620;2022-12-18T14:28:27;25.90;;;11.50;;
4102;SDS011;2065;49.790;9.620;2022-12-18T14:30:54;26.30;;;12.23;;
4102;SDS011;2065;49.790;9.620;2022-12-18T14:33:24;31.13;;;13.80;;
4102;SDS011;2065;49.790;9.620;2022-12-18T14:35:54;34.40;;;14.47;;
4102;SDS011;2065;49.790;9.620;2022-12-18T14:38:23;34.00;;;15.17;;
4102;SDS011;2065;49.790;9.620;2022-12-18T14:40:54;27.30;;;13.23;;
4102;SDS011;2065;49.790;9.620;2022-12-18T14:43:25;37.50;;;16.00;;
4102;SDS011;2065;49.790;9.620;2022-12-18T14:45:54;27.87;;;11.33;;
4102;SDS011;2065;49.790;9.620;2022-12-18T14:48:24;25.93;;;13.37;;
4102;SDS011;2065;49.790;9.620;2022-12-18T14:51:01;29.47;;;14.20;;
4102;SDS011;2065;49.790;9.620;2022-12-18T14:53:32;20.37;;;12.33;;
4102;SDS011;2065;49.790;9.620;2022-12-18T14:56:03;27.23;;;12.60;;
4102;SDS011;2065;49.790;9.620;2022-12-18T14:58:39;30.87;;;11.83;;
4102;SDS011;2065;49.790;9.620;2022-12-18T15:01:17;24.50;;;12.80;;
4102;SDS011;2065;49.790;9.620;2022-12-18T15:03:50;24.40;;;12.37;;
4102;SDS011;2065;49.790;9.620;2022-12-18T15:06:24;29.73;;;13.33;;
4102;SDS011;2065;49.790;9.620;2022-12-18T15:08:54;24.07;;;10.80;;
4102;SDS011;2065;49.790;9.620;2022-12-18T15:11:28;26.87;;;12.60;;
4102;SDS011;2065;49.790;9.620;2022-12-18T15:14:00;30.93;;;12.10;;
4102;SDS011;2065;49.790;9.620;2022-12-18T15:16:49;31.37;;;13.57;;
4102;SDS011;2065;49.790;9.620;2022-12-18T15:19:19;34.80;;;14.33;;
4102;SDS011;2065;49.790;9.620;2022-12-18T15:21:47;41.93;;;17.60;;
4102;SDS011;2065;49.790;9.620;2022-12-18T15:24:16;32.03;;;13.57;;
4102;SDS011;2065;49.790;9.620;2022-12-18T15:26:45;22.87;;;11.40;;
4102;SDS011;2065;49.790;9.620;2022-12-18T15:29:15;25.10;;;12.10;;
4102;SDS011;2065;49.790;9.620;2022-12-18T15:32:03;27.73;;;14.73;;
4102;SDS011;2065;49.790;9.620;2022-12-18T15:34:33;30.97;;;13.00;;
4102;SDS011;2065;49.790;9.620;2022-12-18T15:37:00;29.27;;;14.67;;
4102;SDS011;2065;49.790;9.620;2022-12-18T15:39:27;34.90;;;14.57;;